sensor_id;sensor_type;location;lat;lon;timestamp;P1;durP1;ratioP1;P2;durP2;ratioP2
65656;SDS011;57397;50.096;14.404;2022-12-08T00:01:18;4.13;;;2.75;;
65656;SDS011;57397;50.096;14.404;2022-12-08T00:03:45;3.70;;;2.70;;
65656;SDS011;57397;50.096;14.404;2022-12-08T00:09:31;4.05;;;2.70;;
65656;SDS011;57397;50.096;14.404;2022-12-08T00:12:02;3.35;;;2.60;;
65656;SDS011;57397;50.096;14.404;2022-12-08T00:14:33;4.88;;;2.90;;
65656;SDS011;57397;50.096;14.404;2022-12-08T00:17:02;3.35;;;2.60;;
65656;SDS011;57397;50.096;14.404;2022-12-08T00:19:28;4.30;;;2.70;;
65656;SDS011;57397;50.096;14.404;2022-12-08T00:21:54;3.40;;;2.47;;
65656;SDS011;57397;50.096;14.404;2022-12-08T00:24:20;3.88;;;2.50;;
65656;SDS011;57397;50.096;14.404;2022-12-08T00:26:46;3.90;;;2.58;;
65656;SDS011;57397;50.096;14.404;2022-12-08T00:29:12;4.40;;;2.80;;
65656;SDS011;57397;50.096;14.404;2022-12-08T00:31:37;4.72;;;2.90;;
65656;SDS011;57397;50.096;14.404;2022-12-08T00:34:03;4.65;;;3.03;;
65656;SDS011;57397;50.096;14.404;2022-12-08T00:36:29;4.53;;;2.90;;
65656;SDS011;57397;50.096;14.404;2022-12-08T00:38:55;4.35;;;2.90;;
65656;SDS011;57397;50.096;14.404;2022-12-08T00:41:21;3.78;;;2.63;;
65656;SDS011;57397;50.096;14.404;2022-12-08T00:44:08;4.22;;;2.85;;
65656;SDS011;57397;50.096;14.404;2022-12-08T00:46:34;4.97;;;2.83;;
65656;SDS011;57397;50.096;14.404;2022-12-08T00:49:00;6.43;;;2.95;;
65656;SDS011;57397;50.096;14.404;2022-12-08T00:51:26;4.10;;;2.97;;
65656;SDS011;57397;50.096;14.404;2022-12-08T00:53:51;4.18;;;2.80;;
65656;SDS011;57397;50.096;14.404;2022-12-08T00:56:16;4.20;;;2.47;;
65656;SDS011;57397;50.096;14.404;2022-12-08T00:58:42;4.38;;;2.80;;
65656;SDS011;57397;50.096;14.404;2022-12-08T01:01:11;4.25;;;3.00;;
65656;SDS011;57397;50.096;14.404;2022-12-08T01:03:37;4.35;;;3.10;;
65656;SDS011;57397;50.096;14.404;2022-12-08T01:06:03;4.15;;;2.88;;
65656;SDS011;57397;50.096;14.404;2022-12-08T01:08:28;4.82;;;2.90;;
65656;SDS011;57397;50.096;14.404;2022-12-08T01:10:54;4.22;;;3.03;;
65656;SDS011;57397;50.096;14.404;2022-12-08T01:13:20;5.13;;;3.13;;
65656;SDS011;57397;50.096;14.404;2022-12-08T01:15:45;4.30;;;3.20;;
65656;SDS011;57397;50.096;14.404;2022-12-08T01:18:10;4.03;;;3.10;;
65656;SDS011;57397;50.096;14.404;2022-12-08T01:20:36;4.70;;;3.30;;
65656;SDS011;57397;50.096;14.404;2022-12-08T01:23:01;4.90;;;3.13;;
65656;SDS011;57397;50.096;14.404;2022-12-08T01:25:27;3.97;;;2.80;;
65656;SDS011;57397;50.096;14.404;2022-12-08T01:27:52;4.50;;;3.20;;
65656;SDS011;57397;50.096;14.404;2022-12-08T01:30:18;4.60;;;3.10;;
65656;SDS011;57397;50.096;14.404;2022-12-08T01:32:44;5.15;;;3.25;;
65656;SDS011;57397;50.096;14.404;2022-12-08T01:35:09;3.88;;;2.80;;
65656;SDS011;57397;50.096;14.404;2022-12-08T01:37:35;4.70;;;2.92;;
65656;SDS011;57397;50.096;14.404;2022-12-08T01:40:00;4.75;;;3.15;;
65656;SDS011;57397;50.096;14.404;2022-12-08T01:42:26;4.45;;;3.28;;
65656;SDS011;57397;50.096;14.404;2022-12-08T01:44:56;4.45;;;2.67;;
65656;SDS011;57397;50.096;14.404;2022-12-08T01:47:24;4.38;;;2.97;;
65656;SDS011;57397;50.096;14.404;2022-12-08T01:49:52;4.45;;;3.20;;
65656;SDS011;57397;50.096;14.404;2022-12-08T01:52:36;4.00;;;2.85;;
65656;SDS011;57397;50.096;14.404;2022-12-08T01:55:06;4.07;;;2.58;;
65656;SDS011;57397;50.096;14.404;2022-12-08T01:57:43;3.75;;;2.80;;
65656;SDS011;57397;50.096;14.404;2022-12-08T02:00:11;4.47;;;2.72;;
65656;SDS011;57397;50.096;14.404;2022-12-08T02:02:43;4.72;;;2.95;;
65656;SDS011;57397;50.096;14.404;2022-12-08T02:05:14;4.22;;;3.05;;
65656;SDS011;57397;50.096;14.404;2022-12-08T02:07:40;4.35;;;3.03;;
65656;SDS011;57397;50.096;14.404;2022-12-08T02:10:06;4.28;;;2.95;;
65656;SDS011;57397;50.096;14.404;2022-12-08T02:12:31;3.95;;;2.78;;
65656;SDS011;57397;50.096;14.404;2022-12-08T02:14:57;4.00;;;3.17;;
65656;SDS011;57397;50.096;14.404;2022-12-08T02:22:51;4.35;;;2.55;;
65656;SDS011;57397;50.096;14.404;2022-12-08T02:36:17;4.68;;;3.15;;
65656;SDS011;57397;50.096;14.404;2022-12-08T02:41:51;5.05;;;3.15;;
65656;SDS011;57397;50.096;14.404;2022-12-08T02:47:10;4.28;;;2.97;;
65656;SDS011;57397;50.096;14.404;2022-12-08T02:49:38;4.35;;;3.00;;
65656;SDS011;57397;50.096;14.404;2022-12-08T02:52:36;4.45;;;2.83;;
65656;SDS011;57397;50.096;14.404;2022-12-08T02:57:24;3.83;;;2.70;;
65656;SDS011;57397;50.096;14.404;2022-12-08T03:02:53;4.00;;;2.95;;
65656;SDS011;57397;50.096;14.404;2022-12-08T03:08:09;4.22;;;2.90;;
65656;SDS011;57397;50.096;14.404;2022-12-08T03:10:48;4.40;;;2.90;;
65656;SDS011;57397;50.096;14.404;2022-12-08T03:13:21;4.43;;;3.27;;
65656;SDS011;57397;50.096;14.404;2022-12-08T03:15:49;3.88;;;2.83;;
65656;SDS011;57397;50.096;14.404;2022-12-08T03:18:16;4.25;;;3.03;;
65656;SDS011;57397;50.096;14.404;2022-12-08T03:20:43;4.25;;;2.78;;
65656;SDS011;57397;50.096;14.404;2022-12-08T03:23:10;4.50;;;3.10;;
65656;SDS011;57397;50.096;14.404;2022-12-08T03:25:37;4.32;;;3.00;;
65656;SDS011;57397;50.096;14.404;2022-12-08T03:28:07;4.22;;;2.90;;
65656;SDS011;57397;50.096;14.404;2022-12-08T03:30:35;5.00;;;2.80;;
65656;SDS011;57397;50.096;14.404;2022-12-08T03:33:06;4.70;;;3.05;;
65656;SDS011;57397;50.096;14.404;2022-12-08T03:35:34;4.75;;;2.80;;
65656;SDS011;57397;50.096;14.404;2022-12-08T03:38:05;4.35;;;3.15;;
65656;SDS011;57397;50.096;14.404;2022-12-08T03:40:32;4.88;;;2.95;;
65656;SDS011;57397;50.096;14.404;2022-12-08T03:42:58;4.05;;;2.92;;
65656;SDS011;57397;50.096;14.404;2022-12-08T03:45:23;3.78;;;2.72;;
65656;SDS011;57397;50.096;14.404;2022-12-08T03:47:49;4.10;;;2.90;;
65656;SDS011;57397;50.096;14.404;2022-12-08T03:50:15;4.22;;;2.80;;
65656;SDS011;57397;50.096;14.404;2022-12-08T03:52:40;4.55;;;2.63;;
65656;SDS011;57397;50.096;14.404;2022-12-08T03:55:06;4.22;;;3.03;;
65656;SDS011;57397;50.096;14.404;2022-12-08T03:57:32;4.38;;;2.85;;
65656;SDS011;57397;50.096;14.404;2022-12-08T03:59:57;3.95;;;2.80;;
65656;SDS011;57397;50.096;14.404;2022-12-08T04:02:23;4.97;;;2.90;;
65656;SDS011;57397;50.096;14.404;2022-12-08T04:04:48;3.83;;;2.63;;
65656;SDS011;57397;50.096;14.404;2022-12-08T04:07:13;4.00;;;2.90;;
65656;SDS011;57397;50.096;14.404;2022-12-08T04:09:39;4.43;;;2.60;;
65656;SDS011;57397;50.096;14.404;2022-12-08T04:12:06;4.78;;;3.00;;
65656;SDS011;57397;50.096;14.404;2022-12-08T04:14:32;4.45;;;2.85;;
65656;SDS011;57397;50.096;14.404;2022-12-08T04:16:57;4.03;;;2.95;;
65656;SDS011;57397;50.096;14.404;2022-12-08T04:19:23;3.78;;;2.58;;
65656;SDS011;57397;50.096;14.404;2022-12-08T04:21:48;4.63;;;2.90;;
65656;SDS011;57397;50.096;14.404;2022-12-08T04:24:13;3.97;;;2.80;;
65656;SDS011;57397;50.096;14.404;2022-12-08T04:26:39;4.32;;;2.90;;
65656;SDS011;57397;50.096;14.404;2022-12-08T04:29:04;3.63;;;2.53;;
65656;SDS011;57397;50.096;14.404;2022-12-08T04:31:30;3.92;;;2.78;;
65656;SDS011;57397;50.096;14.404;2022-12-08T04:33:55;4.85;;;2.72;;
65656;SDS011;57397;50.096;14.404;2022-12-08T04:36:20;3.60;;;2.67;;
65656;SDS011;57397;50.096;14.404;2022-12-08T04:38:46;3.58;;;2.58;;
65656;SDS011;57397;50.096;14.404;2022-12-08T04:41:11;3.92;;;2.33;;
65656;SDS011;57397;50.096;14.404;2022-12-08T04:43:37;3.92;;;2.63;;
65656;SDS011;57397;50.096;14.404;2022-12-08T04:46:04;4.13;;;2.60;;
65656;SDS011;57397;50.096;14.404;2022-12-08T04:48:31;4.35;;;2.63;;
65656;SDS011;57397;50.096;14.404;2022-12-08T04:50:57;4.25;;;2.80;;
65656;SDS011;57397;50.096;14.404;2022-12-08T04:53:22;3.42;;;2.50;;
65656;SDS011;57397;50.096;14.404;2022-12-08T04:55:47;3.22;;;2.33;;
65656;SDS011;57397;50.096;14.404;2022-12-08T04:58:14;4.65;;;2.60;;
65656;SDS011;57397;50.096;14.404;2022-12-08T05:00:41;3.85;;;2.58;;
65656;SDS011;57397;50.096;14.404;2022-12-08T05:03:07;3.22;;;2.25;;
65656;SDS011;57397;50.096;14.404;2022-12-08T05:05:33;4.35;;;2.63;;
65656;SDS011;57397;50.096;14.404;2022-12-08T05:07:59;3.22;;;2.30;;
65656;SDS011;57397;50.096;14.404;2022-12-08T05:10:24;3.63;;;2.40;;
65656;SDS011;57397;50.096;14.404;2022-12-08T05:12:49;3.20;;;2.28;;
65656;SDS011;57397;50.096;14.404;2022-12-08T05:15:15;4.55;;;2.70;;
65656;SDS011;57397;50.096;14.404;2022-12-08T05:17:40;3.22;;;2.45;;
65656;SDS011;57397;50.096;14.404;2022-12-08T05:20:06;3.70;;;2.70;;
65656;SDS011;57397;50.096;14.404;2022-12-08T05:22:32;3.65;;;2.30;;
65656;SDS011;57397;50.096;14.404;2022-12-08T05:24:58;3.53;;;2.35;;
65656;SDS011;57397;50.096;14.404;2022-12-08T05:27:23;3.83;;;2.40;;
65656;SDS011;57397;50.096;14.404;2022-12-08T05:29:48;3.05;;;2.03;;
65656;SDS011;57397;50.096;14.404;2022-12-08T05:32:14;3.00;;;2.03;;
65656;SDS011;57397;50.096;14.404;2022-12-08T05:34:40;3.17;;;2.30;;
65656;SDS011;57397;50.096;14.404;2022-12-08T05:37:06;3.15;;;2.30;;
65656;SDS011;57397;50.096;14.404;2022-12-08T05:39:31;2.83;;;2.20;;
65656;SDS011;57397;50.096;14.404;2022-12-08T05:41:56;3.00;;;2.35;;
65656;SDS011;57397;50.096;14.404;2022-12-08T05:44:23;3.83;;;2.28;;
65656;SDS011;57397;50.096;14.404;2022-12-08T05:46:49;4.38;;;2.70;;
65656;SDS011;57397;50.096;14.404;2022-12-08T05:49:14;3.65;;;2.40;;
65656;SDS011;57397;50.096;14.404;2022-12-08T05:51:42;3.60;;;2.33;;
65656;SDS011;57397;50.096;14.404;2022-12-08T05:54:08;2.90;;;2.08;;
65656;SDS011;57397;50.096;14.404;2022-12-08T05:56:33;3.33;;;2.17;;
65656;SDS011;57397;50.096;14.404;2022-12-08T05:58:59;3.55;;;2.33;;
65656;SDS011;57397;50.096;14.404;2022-12-08T06:01:28;3.42;;;2.58;;
65656;SDS011;57397;50.096;14.404;2022-12-08T06:03:56;4.57;;;2.58;;
65656;SDS011;57397;50.096;14.404;2022-12-08T06:06:22;3.00;;;2.28;;
65656;SDS011;57397;50.096;14.404;2022-12-08T06:08:48;2.78;;;2.10;;
65656;SDS011;57397;50.096;14.404;2022-12-08T06:11:21;3.78;;;2.60;;
65656;SDS011;57397;50.096;14.404;2022-12-08T06:13:48;3.20;;;2.25;;
65656;SDS011;57397;50.096;14.404;2022-12-08T06:16:14;3.63;;;2.38;;
65656;SDS011;57397;50.096;14.404;2022-12-08T06:18:49;3.00;;;2.20;;
65656;SDS011;57397;50.096;14.404;2022-12-08T06:21:15;3.05;;;2.28;;
65656;SDS011;57397;50.096;14.404;2022-12-08T06:23:41;2.83;;;2.30;;
65656;SDS011;57397;50.096;14.404;2022-12-08T06:26:10;4.13;;;2.60;;
65656;SDS011;57397;50.096;14.404;2022-12-08T06:28:38;3.42;;;2.30;;
65656;SDS011;57397;50.096;14.404;2022-12-08T06:31:07;2.90;;;2.10;;
65656;SDS011;57397;50.096;14.404;2022-12-08T06:33:33;3.55;;;2.60;;
65656;SDS011;57397;50.096;14.404;2022-12-08T06:35:59;3.35;;;2.30;;
65656;SDS011;57397;50.096;14.404;2022-12-08T06:38:24;3.65;;;2.50;;
65656;SDS011;57397;50.096;14.404;2022-12-08T06:40:53;3.75;;;2.45;;
65656;SDS011;57397;50.096;14.404;2022-12-08T06:43:19;3.25;;;2.28;;
65656;SDS011;57397;50.096;14.404;2022-12-08T06:45:45;3.53;;;2.40;;
65656;SDS011;57397;50.096;14.404;2022-12-08T06:48:10;3.55;;;2.35;;
65656;SDS011;57397;50.096;14.404;2022-12-08T06:50:36;3.38;;;2.40;;
65656;SDS011;57397;50.096;14.404;2022-12-08T06:53:01;3.33;;;2.40;;
65656;SDS011;57397;50.096;14.404;2022-12-08T06:55:26;3.42;;;2.40;;
65656;SDS011;57397;50.096;14.404;2022-12-08T06:57:52;3.15;;;2.28;;
65656;SDS011;57397;50.096;14.404;2022-12-08T07:00:18;3.63;;;2.33;;
65656;SDS011;57397;50.096;14.404;2022-12-08T07:02:43;3.78;;;2.47;;
65656;SDS011;57397;50.096;14.404;2022-12-08T07:05:09;3.20;;;2.30;;
65656;SDS011;57397;50.096;14.404;2022-12-08T07:07:34;3.05;;;2.30;;
65656;SDS011;57397;50.096;14.404;2022-12-08T07:10:00;3.38;;;2.38;;
65656;SDS011;57397;50.096;14.404;2022-12-08T07:12:25;3.30;;;2.30;;
65656;SDS011;57397;50.096;14.404;2022-12-08T07:14:51;3.50;;;2.28;;
65656;SDS011;57397;50.096;14.404;2022-12-08T07:17:16;3.13;;;2.30;;
65656;SDS011;57397;50.096;14.404;2022-12-08T07:19:42;3.00;;;2.10;;
65656;SDS011;57397;50.096;14.404;2022-12-08T07:22:07;3.55;;;2.40;;
65656;SDS011;57397;50.096;14.404;2022-12-08T07:24:33;2.80;;;2.05;;
65656;SDS011;57397;50.096;14.404;2022-12-08T07:26:58;3.63;;;2.40;;
65656;SDS011;57397;50.096;14.404;2022-12-08T07:29:23;5.97;;;2.85;;
65656;SDS011;57397;50.096;14.404;2022-12-08T07:31:49;3.78;;;2.45;;
65656;SDS011;57397;50.096;14.404;2022-12-08T07:34:14;3.50;;;2.50;;
65656;SDS011;57397;50.096;14.404;2022-12-08T07:36:40;3.15;;;2.15;;
65656;SDS011;57397;50.096;14.404;2022-12-08T07:39:06;3.40;;;2.30;;
65656;SDS011;57397;50.096;14.404;2022-12-08T07:41:31;3.20;;;2.45;;
65656;SDS011;57397;50.096;14.404;2022-12-08T07:43:57;3.55;;;2.40;;
65656;SDS011;57397;50.096;14.404;2022-12-08T07:46:23;4.25;;;2.58;;
65656;SDS011;57397;50.096;14.404;2022-12-08T07:48:50;4.03;;;2.55;;
65656;SDS011;57397;50.096;14.404;2022-12-08T07:51:17;2.50;;;2.08;;
65656;SDS011;57397;50.096;14.404;2022-12-08T07:53:43;3.83;;;2.65;;
65656;SDS011;57397;50.096;14.404;2022-12-08T07:56:11;4.30;;;2.58;;
65656;SDS011;57397;50.096;14.404;2022-12-08T07:58:37;4.63;;;2.97;;
65656;SDS011;57397;50.096;14.404;2022-12-08T08:01:03;3.10;;;2.42;;
65656;SDS011;57397;50.096;14.404;2022-12-08T08:03:28;3.03;;;2.28;;
65656;SDS011;57397;50.096;14.404;2022-12-08T08:05:54;3.60;;;2.50;;
65656;SDS011;57397;50.096;14.404;2022-12-08T08:08:19;2.95;;;1.90;;
65656;SDS011;57397;50.096;14.404;2022-12-08T08:10:45;3.47;;;2.38;;
65656;SDS011;57397;50.096;14.404;2022-12-08T08:13:11;3.70;;;2.60;;
65656;SDS011;57397;50.096;14.404;2022-12-08T08:15:37;3.50;;;2.30;;
65656;SDS011;57397;50.096;14.404;2022-12-08T08:18:03;3.20;;;2.20;;
65656;SDS011;57397;50.096;14.404;2022-12-08T08:20:29;4.15;;;2.35;;
65656;SDS011;57397;50.096;14.404;2022-12-08T08:22:54;4.13;;;2.50;;
65656;SDS011;57397;50.096;14.404;2022-12-08T08:25:20;3.80;;;2.40;;
65656;SDS011;57397;50.096;14.404;2022-12-08T08:27:48;3.80;;;2.17;;
65656;SDS011;57397;50.096;14.404;2022-12-08T08:30:14;3.25;;;2.20;;
65656;SDS011;57397;50.096;14.404;2022-12-08T08:32:40;5.93;;;2.50;;
65656;SDS011;57397;50.096;14.404;2022-12-08T08:35:05;2.88;;;2.10;;
65656;SDS011;57397;50.096;14.404;2022-12-08T08:37:31;3.60;;;2.35;;
65656;SDS011;57397;50.096;14.404;2022-12-08T08:39:58;3.83;;;2.40;;
65656;SDS011;57397;50.096;14.404;2022-12-08T08:42:23;3.35;;;2.20;;
65656;SDS011;57397;50.096;14.404;2022-12-08T08:44:51;3.72;;;2.22;;
65656;SDS011;57397;50.096;14.404;2022-12-08T08:47:17;2.53;;;1.98;;
65656;SDS011;57397;50.096;14.404;2022-12-08T08:49:42;3.28;;;2.20;;
65656;SDS011;57397;50.096;14.404;2022-12-08T08:52:08;3.85;;;1.98;;
65656;SDS011;57397;50.096;14.404;2022-12-08T08:54:33;3.28;;;2.30;;
65656;SDS011;57397;50.096;14.404;2022-12-08T08:56:59;2.45;;;1.90;;
65656;SDS011;57397;50.096;14.404;2022-12-08T08:59:25;3.38;;;2.20;;
65656;SDS011;57397;50.096;14.404;2022-12-08T09:01:51;2.83;;;1.98;;
65656;SDS011;57397;50.096;14.404;2022-12-08T09:04:17;2.58;;;2.05;;
65656;SDS011;57397;50.096;14.404;2022-12-08T09:06:46;2.85;;;2.00;;
65656;SDS011;57397;50.096;14.404;2022-12-08T09:09:12;3.28;;;2.20;;
65656;SDS011;57397;50.096;14.404;2022-12-08T09:11:38;3.65;;;2.10;;
65656;SDS011;57397;50.096;14.404;2022-12-08T09:14:04;3.00;;;2.17;;
65656;SDS011;57397;50.096;14.404;2022-12-08T09:16:29;3.42;;;2.40;;
65656;SDS011;57397;50.096;14.404;2022-12-08T09:18:54;2.83;;;1.90;;
65656;SDS011;57397;50.096;14.404;2022-12-08T09:21:21;3.25;;;1.83;;
65656;SDS011;57397;50.096;14.404;2022-12-08T09:23:48;3.45;;;2.10;;
65656;SDS011;57397;50.096;14.404;2022-12-08T09:26:14;3.17;;;2.00;;
65656;SDS011;57397;50.096;14.404;2022-12-08T09:28:40;3.47;;;2.15;;
65656;SDS011;57397;50.096;14.404;2022-12-08T09:31:13;3.97;;;2.10;;
65656;SDS011;57397;50.096;14.404;2022-12-08T09:33:39;3.30;;;2.13;;
65656;SDS011;57397;50.096;14.404;2022-12-08T09:36:05;3.17;;;2.05;;
65656;SDS011;57397;50.096;14.404;2022-12-08T09:38:32;3.30;;;2.10;;
65656;SDS011;57397;50.096;14.404;2022-12-08T09:40:57;2.80;;;2.00;;
65656;SDS011;57397;50.096;14.404;2022-12-08T09:43:43;3.45;;;2.38;;
65656;SDS011;57397;50.096;14.404;2022-12-08T09:46:15;3.28;;;2.28;;
65656;SDS011;57397;50.096;14.404;2022-12-08T09:48:53;3.40;;;2.10;;
65656;SDS011;57397;50.096;14.404;2022-12-08T09:51:23;3.95;;;2.47;;
65656;SDS011;57397;50.096;14.404;2022-12-08T09:53:51;3.08;;;2.10;;
65656;SDS011;57397;50.096;14.404;2022-12-08T09:56:21;2.90;;;2.20;;
65656;SDS011;57397;50.096;14.404;2022-12-08T09:58:53;2.80;;;2.10;;
65656;SDS011;57397;50.096;14.404;2022-12-08T10:01:20;2.58;;;2.10;;
65656;SDS011;57397;50.096;14.404;2022-12-08T10:03:46;3.00;;;1.98;;
65656;SDS011;57397;50.096;14.404;2022-12-08T10:06:18;3.72;;;2.10;;
65656;SDS011;57397;50.096;14.404;2022-12-08T10:08:51;4.47;;;2.38;;
65656;SDS011;57397;50.096;14.404;2022-12-08T10:11:39;3.40;;;2.20;;
65656;SDS011;57397;50.096;14.404;2022-12-08T10:19:46;3.35;;;1.90;;
65656;SDS011;57397;50.096;14.404;2022-12-08T10:22:22;3.80;;;2.05;;
65656;SDS011;57397;50.096;14.404;2022-12-08T10:24:59;3.35;;;2.15;;
65656;SDS011;57397;50.096;14.404;2022-12-08T10:27:35;2.80;;;1.88;;
65656;SDS011;57397;50.096;14.404;2022-12-08T10:30:01;3.10;;;2.10;;
65656;SDS011;57397;50.096;14.404;2022-12-08T10:32:33;3.55;;;2.47;;
65656;SDS011;57397;50.096;14.404;2022-12-08T10:37:28;3.85;;;2.30;;
65656;SDS011;57397;50.096;14.404;2022-12-08T10:39:57;3.30;;;1.98;;
65656;SDS011;57397;50.096;14.404;2022-12-08T10:42:42;3.13;;;2.08;;
65656;SDS011;57397;50.096;14.404;2022-12-08T10:45:19;3.10;;;1.83;;
65656;SDS011;57397;50.096;14.404;2022-12-08T10:48:04;3.20;;;2.00;;
65656;SDS011;57397;50.096;14.404;2022-12-08T10:50:53;3.40;;;1.85;;
65656;SDS011;57397;50.096;14.404;2022-12-08T10:53:30;2.70;;;1.80;;
65656;SDS011;57397;50.096;14.404;2022-12-08T11:00:57;3.35;;;2.20;;
65656;SDS011;57397;50.096;14.404;2022-12-08T11:03:56;3.15;;;1.95;;
65656;SDS011;57397;50.096;14.404;2022-12-08T11:14:14;2.75;;;1.92;;
65656;SDS011;57397;50.096;14.404;2022-12-08T11:16:48;2.97;;;1.90;;
65656;SDS011;57397;50.096;14.404;2022-12-08T11:19:16;2.63;;;1.80;;
65656;SDS011;57397;50.096;14.404;2022-12-08T11:21:43;2.60;;;1.90;;
65656;SDS011;57397;50.096;14.404;2022-12-08T11:24:18;3.45;;;1.88;;
65656;SDS011;57397;50.096;14.404;2022-12-08T11:26:51;2.53;;;1.80;;
65656;SDS011;57397;50.096;14.404;2022-12-08T11:29:22;3.22;;;1.92;;
65656;SDS011;57397;50.096;14.404;2022-12-08T11:31:56;2.50;;;1.88;;
65656;SDS011;57397;50.096;14.404;2022-12-08T11:36:58;2.88;;;1.85;;
65656;SDS011;57397;50.096;14.404;2022-12-08T11:39:25;2.50;;;1.77;;
65656;SDS011;57397;50.096;14.404;2022-12-08T11:41:51;2.55;;;1.80;;
65656;SDS011;57397;50.096;14.404;2022-12-08T11:46:53;3.00;;;1.98;;
65656;SDS011;57397;50.096;14.404;2022-12-08T11:49:24;3.65;;;1.92;;
65656;SDS011;57397;50.096;14.404;2022-12-08T11:51:57;3.15;;;2.20;;
65656;SDS011;57397;50.096;14.404;2022-12-08T11:54:29;3.67;;;2.40;;
65656;SDS011;57397;50.096;14.404;2022-12-08T11:57:00;3.20;;;2.20;;
65656;SDS011;57397;50.096;14.404;2022-12-08T12:01:58;4.60;;;2.95;;
65656;SDS011;57397;50.096;14.404;2022-12-08T12:04:28;6.10;;;3.30;;
65656;SDS011;57397;50.096;14.404;2022-12-08T12:18:37;4.93;;;2.70;;
65656;SDS011;57397;50.096;14.404;2022-12-08T12:26:37;6.63;;;2.50;;
65656;SDS011;57397;50.096;14.404;2022-12-08T12:29:10;2.88;;;2.13;;
65656;SDS011;57397;50.096;14.404;2022-12-08T12:31:40;4.43;;;2.80;;
65656;SDS011;57397;50.096;14.404;2022-12-08T12:34:13;4.15;;;2.58;;
65656;SDS011;57397;50.096;14.404;2022-12-08T12:36:44;5.32;;;3.30;;
65656;SDS011;57397;50.096;14.404;2022-12-08T12:39:19;6.63;;;2.72;;
65656;SDS011;57397;50.096;14.404;2022-12-08T12:41:52;4.75;;;2.88;;
65656;SDS011;57397;50.096;14.404;2022-12-08T12:52:08;4.72;;;3.03;;
65656;SDS011;57397;50.096;14.404;2022-12-08T12:57:21;4.95;;;2.55;;
65656;SDS011;57397;50.096;14.404;2022-12-08T13:04:55;5.28;;;2.70;;
65656;SDS011;57397;50.096;14.404;2022-12-08T13:07:25;3.75;;;2.40;;
65656;SDS011;57397;50.096;14.404;2022-12-08T13:09:55;6.68;;;2.88;;
65656;SDS011;57397;50.096;14.404;2022-12-08T13:12:23;4.78;;;2.58;;
65656;SDS011;57397;50.096;14.404;2022-12-08T13:14:49;3.75;;;2.40;;
65656;SDS011;57397;50.096;14.404;2022-12-08T13:17:23;4.90;;;2.72;;
65656;SDS011;57397;50.096;14.404;2022-12-08T13:19:53;3.05;;;2.05;;
65656;SDS011;57397;50.096;14.404;2022-12-08T13:30:49;4.18;;;2.00;;
65656;SDS011;57397;50.096;14.404;2022-12-08T13:33:29;4.55;;;2.38;;
65656;SDS011;57397;50.096;14.404;2022-12-08T13:36:04;3.15;;;1.95;;
65656;SDS011;57397;50.096;14.404;2022-12-08T13:38:43;3.75;;;1.98;;
65656;SDS011;57397;50.096;14.404;2022-12-08T13:41:15;4.15;;;2.10;;
65656;SDS011;57397;50.096;14.404;2022-12-08T13:43:47;2.88;;;1.80;;
65656;SDS011;57397;50.096;14.404;2022-12-08T13:46:19;3.13;;;1.80;;
65656;SDS011;57397;50.096;14.404;2022-12-08T13:48:52;2.55;;;1.67;;
65656;SDS011;57397;50.096;14.404;2022-12-08T13:51:25;2.83;;;2.05;;
65656;SDS011;57397;50.096;14.404;2022-12-08T13:54:06;3.22;;;1.95;;
65656;SDS011;57397;50.096;14.404;2022-12-08T13:56:44;2.85;;;1.83;;
65656;SDS011;57397;50.096;14.404;2022-12-08T14:01:44;3.63;;;1.90;;
65656;SDS011;57397;50.096;14.404;2022-12-08T14:04:18;3.08;;;1.80;;
65656;SDS011;57397;50.096;14.404;2022-12-08T14:07:05;3.67;;;1.92;;
65656;SDS011;57397;50.096;14.404;2022-12-08T14:09:34;4.82;;;1.83;;
65656;SDS011;57397;50.096;14.404;2022-12-08T14:12:20;2.25;;;1.67;;
65656;SDS011;57397;50.096;14.404;2022-12-08T14:14:49;4.68;;;1.65;;
65656;SDS011;57397;50.096;14.404;2022-12-08T14:17:17;2.95;;;1.90;;
65656;SDS011;57397;50.096;14.404;2022-12-08T14:19:46;3.00;;;1.70;;
65656;SDS011;57397;50.096;14.404;2022-12-08T14:22:36;3.00;;;1.60;;
65656;SDS011;57397;50.096;14.404;2022-12-08T14:25:03;2.55;;;1.52;;
65656;SDS011;57397;50.096;14.404;2022-12-08T14:27:34;2.80;;;1.67;;
65656;SDS011;57397;50.096;14.404;2022-12-08T14:32:54;2.92;;;1.60;;
65656;SDS011;57397;50.096;14.404;2022-12-08T14:35:29;2.88;;;1.60;;
65656;SDS011;57397;50.096;14.404;2022-12-08T14:37:57;3.83;;;1.73;;
65656;SDS011;57397;50.096;14.404;2022-12-08T14:40:40;2.47;;;1.60;;
65656;SDS011;57397;50.096;14.404;2022-12-08T14:56:07;2.70;;;1.77;;
65656;SDS011;57397;50.096;14.404;2022-12-08T14:58:35;3.25;;;1.88;;
65656;SDS011;57397;50.096;14.404;2022-12-08T15:01:00;3.20;;;1.83;;
65656;SDS011;57397;50.096;14.404;2022-12-08T15:03:29;3.00;;;1.80;;
65656;SDS011;57397;50.096;14.404;2022-12-08T15:05:56;3.15;;;1.90;;
65656;SDS011;57397;50.096;14.404;2022-12-08T15:08:27;3.00;;;1.80;;
65656;SDS011;57397;50.096;14.404;2022-12-08T15:11:12;3.00;;;2.00;;
65656;SDS011;57397;50.096;14.404;2022-12-08T15:13:45;3.42;;;1.75;;
65656;SDS011;57397;50.096;14.404;2022-12-08T15:16:28;3.17;;;1.83;;
65656;SDS011;57397;50.096;14.404;2022-12-08T15:19:53;3.05;;;1.70;;
65656;SDS011;57397;50.096;14.404;2022-12-08T15:21:56;2.33;;;1.73;;
65656;SDS011;57397;50.096;14.404;2022-12-08T15:24:24;3.00;;;1.70;;
65656;SDS011;57397;50.096;14.404;2022-12-08T15:26:51;2.33;;;1.70;;
65656;SDS011;57397;50.096;14.404;2022-12-08T15:29:24;3.15;;;1.90;;
65656;SDS011;57397;50.096;14.404;2022-12-08T15:31:51;3.27;;;1.70;;
65656;SDS011;57397;50.096;14.404;2022-12-08T15:34:18;2.97;;;1.77;;
65656;SDS011;57397;50.096;14.404;2022-12-08T15:36:44;3.08;;;1.63;;
65656;SDS011;57397;50.096;14.404;2022-12-08T15:39:23;3.20;;;1.85;;
65656;SDS011;57397;50.096;14.404;2022-12-08T15:41:52;3.58;;;2.08;;
65656;SDS011;57397;50.096;14.404;2022-12-08T15:44:18;2.08;;;1.48;;
65656;SDS011;57397;50.096;14.404;2022-12-08T15:46:43;4.53;;;2.00;;
65656;SDS011;57397;50.096;14.404;2022-12-08T15:49:15;3.53;;;1.88;;
65656;SDS011;57397;50.096;14.404;2022-12-08T15:51:42;2.97;;;1.50;;
65656;SDS011;57397;50.096;14.404;2022-12-08T15:54:07;2.45;;;1.63;;
65656;SDS011;57397;50.096;14.404;2022-12-08T15:56:33;3.33;;;1.88;;
65656;SDS011;57397;50.096;14.404;2022-12-08T15:58:58;3.13;;;1.90;;
65656;SDS011;57397;50.096;14.404;2022-12-08T16:01:24;4.40;;;2.45;;
65656;SDS011;57397;50.096;14.404;2022-12-08T16:03:50;4.20;;;2.20;;
65656;SDS011;57397;50.096;14.404;2022-12-08T16:06:16;4.13;;;2.38;;
65656;SDS011;57397;50.096;14.404;2022-12-08T16:08:43;3.17;;;2.15;;
65656;SDS011;57397;50.096;14.404;2022-12-08T16:11:09;4.78;;;2.55;;
65656;SDS011;57397;50.096;14.404;2022-12-08T16:13:53;4.38;;;2.20;;
65656;SDS011;57397;50.096;14.404;2022-12-08T16:16:19;5.60;;;2.60;;
65656;SDS011;57397;50.096;14.404;2022-12-08T16:18:48;5.63;;;2.42;;
65656;SDS011;57397;50.096;14.404;2022-12-08T16:21:15;4.45;;;2.45;;
65656;SDS011;57397;50.096;14.404;2022-12-08T16:23:41;5.18;;;2.30;;
65656;SDS011;57397;50.096;14.404;2022-12-08T16:26:13;3.88;;;2.10;;
65656;SDS011;57397;50.096;14.404;2022-12-08T16:28:40;4.40;;;2.40;;
65656;SDS011;57397;50.096;14.404;2022-12-08T16:31:07;4.85;;;2.70;;
65656;SDS011;57397;50.096;14.404;2022-12-08T16:33:33;3.90;;;2.30;;
65656;SDS011;57397;50.096;14.404;2022-12-08T16:35:59;4.03;;;2.45;;
65656;SDS011;57397;50.096;14.404;2022-12-08T16:38:27;5.60;;;3.20;;
65656;SDS011;57397;50.096;14.404;2022-12-08T16:40:52;5.40;;;2.85;;
65656;SDS011;57397;50.096;14.404;2022-12-08T16:43:36;5.43;;;2.92;;